Carrollton, TX

12:12 AM CDT on October 26, 2014 (GMT -0500)
Dallas Love | Change Station
CLOSE
Current Station
Airport
Location: Dallas Love,
Elevation: 486 ft
Nearby Weather Stations

Elev 486 ft 32.85 °N, 96.86 °W | Updated 19 minutes ago

Clear
Clear
73 °F
Feels Like 73 °F
N
8
Wind Variable Wind from South

Today
High -- | Low -- °F
--% Chance of Precip.
Yesterday
High -- | Low -- °F
Precip. -- in
7:40 AM 6:42 PM
Waxing Crescent, 6% visible
Pressure 30.02 in
Visibility 10.0 miles
Clouds Clear
Dew Point 60 °F
Humidity 64%
Rainfall 0.00 in
Snow Depth Not available.
UV 0 out of 12
Pollen 5.20 out of 12
Ozone Good
PM2.5 Moderate
Flu Activity Local Activity
METAR KDAL 260453Z 18007KT 10SM CLR 23/16 A3004 RMK AO2 SLP166 T02280156

More Conditions Fewer Conditions

Pressure 30.02 in
Visibility 10.0 miles
Clouds Clear
Dew Point 60 °F
Humidity 64%
Rainfall 0.00 in
Snow Depth Not available.
UV 0 out of 12
Pollen 5.20 out of 12
Ozone Good
PM2.5 Moderate
Flu Activity Local Activity
METAR KDAL 260453Z 18007KT 10SM CLR 23/16 A3004 RMK AO2 SLP166 T02280156

More Conditions Fewer Conditions

10-Day Weather Forecast

Almanac

Astronomy

Oct. 26, 2014 Rise Set
Actual Time 7:40 AM CDT 6:42 PM CDT
Civil Twilight 7:15 AM CDT 7:07 PM CDT
Nautical Twilight 6:46 AM CDT 7:36 PM CDT
Astronomical Twilight 6:17 AM CDT 8:04 PM CDT
Moon 10:14 AM CDT 9:00 PM CDT
Length of Visible Light 11h 52m
Length of Day
11h 01m
Tomorrow will be 1m 50s shorter.
Waxing Crescent, 6% of the Moon is Illuminated
Today
Waxing Crescent
Oct 30
First Quarter
Nov 6
Full
Nov 14
Last Quarter
Nov 22
New

Today's Extremes

State Highs State Lows

Community

WunderPhotos

Upload Photos

1,765,111 photos uploaded!

Nearby

Air Quality

  Air Quality AQ Index Pollutant
Yesterday Moderate
PM2.5
Yesterday Moderate
OZONE
Current Moderate
PM2.5
Current Good
OZONE
Saturday Moderate
OZONE
Saturday Good
PM10
Sunday Moderate
OZONE
Sunday Good
PM10
Monday Good
OZONE
Monday Good
PM10
Tuesday Good
OZONE
Tuesday Good
PM10

Snow Depth

Station Depth Elevation
No new snow has been reported.

Earthquake Activity

City Distance Mag. Time & Date
No recent earthquake activity has been reported nearby.
Minimum magnitude displayed is 2.5.

Coastal Water Temperatures

Place Temperature
No Stations Reporting

Nearby Weather Stations